Archbold, Ohio
Current Conditions -  °F | °C
As of 6:35 PM on Monday 22 Dec 2014 (Local Time) from KUSE Reporting Station
Haze Haze  
Wind Chill: -3°   Ceiling: 7500
Heat Index:   Visibility: 6mi
Dew Point: -1°   Wind: 9mph
Humidity: 87%   Direction: 70°ENE
Pressure: 29.87"   Gusts: NA
Location:  41.52°N, 84.31°W
Report Text: KUSE 222335Z AUTO 07008KT 6SM BR OVC075 01/M01 A2987 RMK AO2
Loading
Personal Weather Stations






























Interactive Weather Map New forecast layout! Learn more

10-Day Weather Forecast

Advertisements
Track Severe Weather on mobile